SBOSBO GPT / KGPT
Speedbird OnlineSpeedbird Online GPT / KGPT

Gulfport Biloxi International Airport
13:47 25.8°C

Location Gulfport, United States
Latitude: 30.40730094909668
Longitude: -89.07009887695312
Local Time 13:47 on 23 Feb 2024
UTC -6 hours (America/Chicago)
Currency £1 equals USD 1.27
METAR KGPT 231853Z 32016G23KT 10SM SCT055 27/12 A2979 RMK AO2 PK WND 31026/1813 SLP086 T02670122
TAF KGPT 231720Z 2318/2418 32012KT P6SM FEW030 SCT250 FM241200 29005KT P6SM SKC
Weather As Of 23 Feb 2024 13:47
Description Scattered clouds
Wind 30 km/h from North-West (320°)
Cloud Cover 40%
Precipitation Rain: none, Snow: none
Sunrise 06:29
Sunset 17:50
Rotations During the last 90 days there were
3 flights from DFW
4 flights to DFW
Web Wikipedia
Codes IATA: GPT
ICAO: KGPT
Altitude 9 Meter / 28 Feet
Distance 7,360 KM / 4,573 Miles
from London.
Runways
RunwayLength (m)Surface
042134Asphalt
142744Partial
181504Asphalt
222134Asphalt
322744Partial
361504Asphalt
Radio
TypeDescriptionFrequency
A/DAPP/DEP124.6
ATISATIS119.45
CTAFCTAF123.7
GNDGND120.4
OPSANG OPS37.78
RDOGREENWOOD RDO109
TWRTWR123.7
UNICUNICOM122.95
Live ATC



Support Speedbird Online

© 2017-2024 Speedbird Online